sensor_id;sensor_type;location;lat;lon;timestamp;temperature;humidity
18335;DHT22;9293;49.524;10.964;2023-07-13T00:01:14;22.00;99.90
18335;DHT22;9293;49.524;10.964;2023-07-13T00:03:45;22.00;99.90
18335;DHT22;9293;49.524;10.964;2023-07-13T00:06:15;22.00;99.90
18335;DHT22;9293;49.524;10.964;2023-07-13T00:08:44;22.00;99.90
18335;DHT22;9293;49.524;10.964;2023-07-13T00:11:21;22.00;99.90
18335;DHT22;9293;49.524;10.964;2023-07-13T00:13:50;21.90;99.90
18335;DHT22;9293;49.524;10.964;2023-07-13T00:16:19;21.90;99.90
18335;DHT22;9293;49.524;10.964;2023-07-13T00:18:49;21.90;99.90
18335;DHT22;9293;49.524;10.964;2023-07-13T00:21:18;21.90;99.90
18335;DHT22;9293;49.524;10.964;2023-07-13T00:23:48;21.90;99.90
18335;DHT22;9293;49.524;10.964;2023-07-13T00:26:16;21.90;99.90
18335;DHT22;9293;49.524;10.964;2023-07-13T00:28:45;21.80;99.90
18335;DHT22;9293;49.524;10.964;2023-07-13T00:31:14;21.80;99.90
18335;DHT22;9293;49.524;10.964;2023-07-13T00:33:46;21.80;99.90
18335;DHT22;9293;49.524;10.964;2023-07-13T00:36:14;21.70;99.90
18335;DHT22;9293;49.524;10.964;2023-07-13T00:38:43;21.70;99.90
18335;DHT22;9293;49.524;10.964;2023-07-13T00:41:11;21.70;99.90
18335;DHT22;9293;49.524;10.964;2023-07-13T00:43:39;21.70;99.90
18335;DHT22;9293;49.524;10.964;2023-07-13T00:48:41;21.50;99.90
18335;DHT22;9293;49.524;10.964;2023-07-13T00:51:10;21.50;99.90
18335;DHT22;9293;49.524;10.964;2023-07-13T00:53:40;21.50;99.90
18335;DHT22;9293;49.524;10.964;2023-07-13T00:56:08;21.50;99.90
18335;DHT22;9293;49.524;10.964;2023-07-13T00:58:37;21.40;99.90
18335;DHT22;9293;49.524;10.964;2023-07-13T01:01:05;21.40;99.90
18335;DHT22;9293;49.524;10.964;2023-07-13T01:03:34;21.40;99.90
18335;DHT22;9293;49.524;10.964;2023-07-13T01:06:03;21.40;99.90
18335;DHT22;9293;49.524;10.964;2023-07-13T01:08:32;21.30;99.90
18335;DHT22;9293;49.524;10.964;2023-07-13T01:11:00;21.30;99.90
18335;DHT22;9293;49.524;10.964;2023-07-13T01:13:29;21.30;99.90
18335;DHT22;9293;49.524;10.964;2023-07-13T01:15:58;21.30;99.90
18335;DHT22;9293;49.524;10.964;2023-07-13T01:18:29;21.20;99.90
18335;DHT22;9293;49.524;10.964;2023-07-13T01:21:08;21.00;99.90
18335;DHT22;9293;49.524;10.964;2023-07-13T01:23:39;20.90;99.90
18335;DHT22;9293;49.524;10.964;2023-07-13T01:26:07;20.80;99.90
18335;DHT22;9293;49.524;10.964;2023-07-13T01:28:36;20.70;99.90
18335;DHT22;9293;49.524;10.964;2023-07-13T01:31:07;20.70;99.90
18335;DHT22;9293;49.524;10.964;2023-07-13T01:33:37;20.70;99.90
18335;DHT22;9293;49.524;10.964;2023-07-13T01:36:06;20.60;99.90
18335;DHT22;9293;49.524;10.964;2023-07-13T01:38:36;20.60;99.90
18335;DHT22;9293;49.524;10.964;2023-07-13T01:41:06;20.50;99.90
18335;DHT22;9293;49.524;10.964;2023-07-13T01:43:34;20.40;99.90
18335;DHT22;9293;49.524;10.964;2023-07-13T01:46:02;20.40;99.90
18335;DHT22;9293;49.524;10.964;2023-07-13T01:48:49;20.40;99.90
18335;DHT22;9293;49.524;10.964;2023-07-13T01:51:17;20.30;99.90
18335;DHT22;9293;49.524;10.964;2023-07-13T01:53:46;20.30;99.90
18335;DHT22;9293;49.524;10.964;2023-07-13T01:56:14;20.30;99.90
18335;DHT22;9293;49.524;10.964;2023-07-13T01:58:42;20.20;99.90
18335;DHT22;9293;49.524;10.964;2023-07-13T02:01:10;20.10;99.90
18335;DHT22;9293;49.524;10.964;2023-07-13T02:03:38;20.00;99.90
18335;DHT22;9293;49.524;10.964;2023-07-13T02:06:07;19.90;99.90
18335;DHT22;9293;49.524;10.964;2023-07-13T02:08:36;19.90;99.90
18335;DHT22;9293;49.524;10.964;2023-07-13T02:11:05;19.80;99.90
18335;DHT22;9293;49.524;10.964;2023-07-13T02:13:33;19.70;99.90
18335;DHT22;9293;49.524;10.964;2023-07-13T02:16:01;19.60;99.90
18335;DHT22;9293;49.524;10.964;2023-07-13T02:18:29;19.70;99.90
18335;DHT22;9293;49.524;10.964;2023-07-13T02:20:57;19.60;99.90
18335;DHT22;9293;49.524;10.964;2023-07-13T02:23:25;19.60;99.90
18335;DHT22;9293;49.524;10.964;2023-07-13T02:25:54;19.50;99.90
18335;DHT22;9293;49.524;10.964;2023-07-13T02:28:25;19.50;99.90
18335;DHT22;9293;49.524;10.964;2023-07-13T02:30:53;19.50;99.90
18335;DHT22;9293;49.524;10.964;2023-07-13T02:33:21;19.50;99.90
18335;DHT22;9293;49.524;10.964;2023-07-13T02:35:52;19.50;99.90
18335;DHT22;9293;49.524;10.964;2023-07-13T02:38:20;19.50;99.90
18335;DHT22;9293;49.524;10.964;2023-07-13T02:40:49;19.50;99.90
18335;DHT22;9293;49.524;10.964;2023-07-13T02:43:19;19.40;99.90
18335;DHT22;9293;49.524;10.964;2023-07-13T02:45:47;19.40;99.90
18335;DHT22;9293;49.524;10.964;2023-07-13T02:48:15;19.30;99.90
18335;DHT22;9293;49.524;10.964;2023-07-13T02:50:44;19.30;99.90
18335;DHT22;9293;49.524;10.964;2023-07-13T02:53:12;19.20;99.90
18335;DHT22;9293;49.524;10.964;2023-07-13T02:55:40;19.30;99.90
18335;DHT22;9293;49.524;10.964;2023-07-13T02:58:08;19.10;99.90
18335;DHT22;9293;49.524;10.964;2023-07-13T03:00:37;19.10;99.90
18335;DHT22;9293;49.524;10.964;2023-07-13T03:03:09;19.00;99.90
18335;DHT22;9293;49.524;10.964;2023-07-13T03:05:37;18.90;99.90
18335;DHT22;9293;49.524;10.964;2023-07-13T03:08:05;18.80;99.90
18335;DHT22;9293;49.524;10.964;2023-07-13T03:10:35;18.80;99.90
18335;DHT22;9293;49.524;10.964;2023-07-13T03:13:04;18.80;99.90
18335;DHT22;9293;49.524;10.964;2023-07-13T03:15:33;18.70;99.90
18335;DHT22;9293;49.524;10.964;2023-07-13T03:18:01;18.70;99.90
18335;DHT22;9293;49.524;10.964;2023-07-13T03:20:32;18.60;99.90
18335;DHT22;9293;49.524;10.964;2023-07-13T03:23:00;18.60;99.90
18335;DHT22;9293;49.524;10.964;2023-07-13T03:25:29;18.50;99.90
18335;DHT22;9293;49.524;10.964;2023-07-13T03:28:01;18.60;99.90
18335;DHT22;9293;49.524;10.964;2023-07-13T03:30:30;18.50;99.90
18335;DHT22;9293;49.524;10.964;2023-07-13T03:32:58;18.50;99.90
18335;DHT22;9293;49.524;10.964;2023-07-13T03:35:26;18.40;99.90
18335;DHT22;9293;49.524;10.964;2023-07-13T03:37:54;18.40;99.90
18335;DHT22;9293;49.524;10.964;2023-07-13T03:40:22;18.30;99.90
18335;DHT22;9293;49.524;10.964;2023-07-13T03:42:50;18.30;99.90
18335;DHT22;9293;49.524;10.964;2023-07-13T03:45:20;18.20;99.90
18335;DHT22;9293;49.524;10.964;2023-07-13T03:47:48;18.20;99.90
18335;DHT22;9293;49.524;10.964;2023-07-13T03:50:24;18.20;99.90
18335;DHT22;9293;49.524;10.964;2023-07-13T03:53:06;18.10;99.90
18335;DHT22;9293;49.524;10.964;2023-07-13T03:55:36;18.10;99.90
18335;DHT22;9293;49.524;10.964;2023-07-13T04:00:59;18.10;99.90
18335;DHT22;9293;49.524;10.964;2023-07-13T04:03:31;18.10;99.90
18335;DHT22;9293;49.524;10.964;2023-07-13T04:06:02;18.00;99.90
18335;DHT22;9293;49.524;10.964;2023-07-13T04:08:35;18.00;99.90
18335;DHT22;9293;49.524;10.964;2023-07-13T04:11:08;18.10;99.90
18335;DHT22;9293;49.524;10.964;2023-07-13T04:13:37;18.10;99.90
18335;DHT22;9293;49.524;10.964;2023-07-13T04:16:08;18.10;99.90
18335;DHT22;9293;49.524;10.964;2023-07-13T04:18:39;18.10;99.90
18335;DHT22;9293;49.524;10.964;2023-07-13T04:21:08;18.10;99.90
18335;DHT22;9293;49.524;10.964;2023-07-13T04:23:37;18.10;99.90
18335;DHT22;9293;49.524;10.964;2023-07-13T04:26:09;18.10;99.90
18335;DHT22;9293;49.524;10.964;2023-07-13T04:28:38;18.10;99.90
18335;DHT22;9293;49.524;10.964;2023-07-13T04:31:06;18.00;99.90
18335;DHT22;9293;49.524;10.964;2023-07-13T04:33:34;18.00;99.90
18335;DHT22;9293;49.524;10.964;2023-07-13T04:36:03;17.90;99.90
18335;DHT22;9293;49.524;10.964;2023-07-13T04:38:32;17.90;99.90
18335;DHT22;9293;49.524;10.964;2023-07-13T04:41:04;17.90;99.90
18335;DHT22;9293;49.524;10.964;2023-07-13T04:43:33;18.00;99.90
18335;DHT22;9293;49.524;10.964;2023-07-13T04:46:12;18.10;99.90
18335;DHT22;9293;49.524;10.964;2023-07-13T04:48:41;18.10;99.90
18335;DHT22;9293;49.524;10.964;2023-07-13T04:51:09;18.30;99.90
18335;DHT22;9293;49.524;10.964;2023-07-13T04:53:37;18.40;99.90
18335;DHT22;9293;49.524;10.964;2023-07-13T04:56:05;18.50;99.90
18335;DHT22;9293;49.524;10.964;2023-07-13T04:58:33;18.70;99.90
18335;DHT22;9293;49.524;10.964;2023-07-13T05:01:03;18.80;99.90
18335;DHT22;9293;49.524;10.964;2023-07-13T05:03:31;18.80;99.90
18335;DHT22;9293;49.524;10.964;2023-07-13T05:06:01;18.80;99.90
18335;DHT22;9293;49.524;10.964;2023-07-13T05:08:29;18.80;99.90
18335;DHT22;9293;49.524;10.964;2023-07-13T05:10:59;18.90;99.90
18335;DHT22;9293;49.524;10.964;2023-07-13T05:13:27;18.90;99.90
18335;DHT22;9293;49.524;10.964;2023-07-13T05:15:57;19.00;99.90
18335;DHT22;9293;49.524;10.964;2023-07-13T05:18:26;19.00;99.90
18335;DHT22;9293;49.524;10.964;2023-07-13T05:21:02;19.20;99.90
18335;DHT22;9293;49.524;10.964;2023-07-13T05:23:31;19.20;99.90
18335;DHT22;9293;49.524;10.964;2023-07-13T05:26:00;19.40;99.90
18335;DHT22;9293;49.524;10.964;2023-07-13T05:28:33;19.50;99.90
18335;DHT22;9293;49.524;10.964;2023-07-13T05:31:02;19.60;99.90
18335;DHT22;9293;49.524;10.964;2023-07-13T05:33:33;19.60;99.90
18335;DHT22;9293;49.524;10.964;2023-07-13T05:36:01;19.80;99.90
18335;DHT22;9293;49.524;10.964;2023-07-13T05:38:30;20.00;99.90
18335;DHT22;9293;49.524;10.964;2023-07-13T05:40:58;20.10;99.90
18335;DHT22;9293;49.524;10.964;2023-07-13T05:43:31;20.30;99.90
18335;DHT22;9293;49.524;10.964;2023-07-13T05:45:59;20.30;99.90
18335;DHT22;9293;49.524;10.964;2023-07-13T05:48:27;20.40;99.90
18335;DHT22;9293;49.524;10.964;2023-07-13T05:50:55;20.40;99.90
18335;DHT22;9293;49.524;10.964;2023-07-13T05:53:23;20.40;99.90
18335;DHT22;9293;49.524;10.964;2023-07-13T05:55:53;20.40;99.90
18335;DHT22;9293;49.524;10.964;2023-07-13T05:58:22;20.50;99.90
18335;DHT22;9293;49.524;10.964;2023-07-13T06:00:57;20.60;99.90
18335;DHT22;9293;49.524;10.964;2023-07-13T06:03:26;20.60;99.90
18335;DHT22;9293;49.524;10.964;2023-07-13T06:05:54;20.70;99.90
18335;DHT22;9293;49.524;10.964;2023-07-13T06:08:22;20.70;99.90
18335;DHT22;9293;49.524;10.964;2023-07-13T06:10:50;20.60;99.90
18335;DHT22;9293;49.524;10.964;2023-07-13T06:13:18;20.50;99.90
18335;DHT22;9293;49.524;10.964;2023-07-13T06:15:50;20.60;99.90
18335;DHT22;9293;49.524;10.964;2023-07-13T06:18:18;20.70;99.90
18335;DHT22;9293;49.524;10.964;2023-07-13T06:20:46;20.80;99.90
18335;DHT22;9293;49.524;10.964;2023-07-13T06:23:14;21.10;99.90
18335;DHT22;9293;49.524;10.964;2023-07-13T06:25:43;21.30;99.90
18335;DHT22;9293;49.524;10.964;2023-07-13T06:28:11;21.40;99.90
18335;DHT22;9293;49.524;10.964;2023-07-13T06:30:39;21.80;99.90
18335;DHT22;9293;49.524;10.964;2023-07-13T06:33:08;22.10;99.90
18335;DHT22;9293;49.524;10.964;2023-07-13T06:35:36;22.20;99.90
18335;DHT22;9293;49.524;10.964;2023-07-13T06:38:04;22.40;99.90
18335;DHT22;9293;49.524;10.964;2023-07-13T06:40:32;22.40;99.90
18335;DHT22;9293;49.524;10.964;2023-07-13T06:43:00;22.50;99.90
18335;DHT22;9293;49.524;10.964;2023-07-13T06:45:28;22.30;99.90
18335;DHT22;9293;49.524;10.964;2023-07-13T06:47:56;22.00;99.90
18335;DHT22;9293;49.524;10.964;2023-07-13T06:50:25;21.90;99.90
18335;DHT22;9293;49.524;10.964;2023-07-13T06:52:53;21.70;99.90
18335;DHT22;9293;49.524;10.964;2023-07-13T06:55:21;21.60;99.90
18335;DHT22;9293;49.524;10.964;2023-07-13T06:57:49;21.90;99.90
18335;DHT22;9293;49.524;10.964;2023-07-13T07:00:17;22.00;99.90
18335;DHT22;9293;49.524;10.964;2023-07-13T07:02:45;22.20;99.90
18335;DHT22;9293;49.524;10.964;2023-07-13T07:05:16;22.70;99.90
18335;DHT22;9293;49.524;10.964;2023-07-13T07:07:44;23.00;99.90
18335;DHT22;9293;49.524;10.964;2023-07-13T07:10:16;23.30;99.90
18335;DHT22;9293;49.524;10.964;2023-07-13T07:12:44;23.50;99.90
18335;DHT22;9293;49.524;10.964;2023-07-13T07:15:12;23.60;99.90
18335;DHT22;9293;49.524;10.964;2023-07-13T07:17:40;23.60;99.90
18335;DHT22;9293;49.524;10.964;2023-07-13T07:20:09;23.40;99.90
18335;DHT22;9293;49.524;10.964;2023-07-13T07:22:37;23.40;99.90
18335;DHT22;9293;49.524;10.964;2023-07-13T07:25:05;23.80;99.90
18335;DHT22;9293;49.524;10.964;2023-07-13T07:27:36;24.20;99.90
18335;DHT22;9293;49.524;10.964;2023-07-13T07:30:11;24.30;99.90
18335;DHT22;9293;49.524;10.964;2023-07-13T07:32:42;24.20;99.90
18335;DHT22;9293;49.524;10.964;2023-07-13T07:35:13;23.90;99.90
18335;DHT22;9293;49.524;10.964;2023-07-13T07:37:41;23.80;99.90
18335;DHT22;9293;49.524;10.964;2023-07-13T07:40:12;23.90;99.90
18335;DHT22;9293;49.524;10.964;2023-07-13T07:42:43;24.10;99.90
18335;DHT22;9293;49.524;10.964;2023-07-13T07:45:11;24.40;99.90
18335;DHT22;9293;49.524;10.964;2023-07-13T07:47:39;24.40;99.90
18335;DHT22;9293;49.524;10.964;2023-07-13T07:50:08;24.60;99.90
18335;DHT22;9293;49.524;10.964;2023-07-13T07:52:36;24.90;99.90
18335;DHT22;9293;49.524;10.964;2023-07-13T07:55:05;25.20;99.90
18335;DHT22;9293;49.524;10.964;2023-07-13T07:57:36;25.60;99.90
18335;DHT22;9293;49.524;10.964;2023-07-13T08:00:08;25.90;99.90
18335;DHT22;9293;49.524;10.964;2023-07-13T08:02:42;26.20;99.90
18335;DHT22;9293;49.524;10.964;2023-07-13T08:05:30;26.20;99.90
18335;DHT22;9293;49.524;10.964;2023-07-13T08:08:01;26.30;99.80
18335;DHT22;9293;49.524;10.964;2023-07-13T08:10:29;26.30;99.80
18335;DHT22;9293;49.524;10.964;2023-07-13T08:12:57;26.30;99.10
18335;DHT22;9293;49.524;10.964;2023-07-13T08:15:28;26.10;99.90
18335;DHT22;9293;49.524;10.964;2023-07-13T08:17:57;25.80;99.90
18335;DHT22;9293;49.524;10.964;2023-07-13T08:20:25;25.90;99.40
18335;DHT22;9293;49.524;10.964;2023-07-13T08:22:53;26.00;98.90
18335;DHT22;9293;49.524;10.964;2023-07-13T08:25:21;26.20;98.70
18335;DHT22;9293;49.524;10.964;2023-07-13T08:27:50;26.10;98.00
18335;DHT22;9293;49.524;10.964;2023-07-13T08:30:18;26.10;98.30
18335;DHT22;9293;49.524;10.964;2023-07-13T08:32:46;26.40;97.60
18335;DHT22;9293;49.524;10.964;2023-07-13T08:35:15;26.40;97.50
18335;DHT22;9293;49.524;10.964;2023-07-13T08:37:43;26.80;96.50
18335;DHT22;9293;49.524;10.964;2023-07-13T08:40:12;26.90;95.90
18335;DHT22;9293;49.524;10.964;2023-07-13T08:42:46;26.80;95.30
18335;DHT22;9293;49.524;10.964;2023-07-13T08:45:19;26.60;95.20
18335;DHT22;9293;49.524;10.964;2023-07-13T08:47:51;26.40;94.90
18335;DHT22;9293;49.524;10.964;2023-07-13T08:50:23;26.30;94.90
18335;DHT22;9293;49.524;10.964;2023-07-13T08:52:52;26.20;95.00
18335;DHT22;9293;49.524;10.964;2023-07-13T08:55:22;26.30;95.30
18335;DHT22;9293;49.524;10.964;2023-07-13T08:57:59;26.70;94.40
18335;DHT22;9293;49.524;10.964;2023-07-13T09:00:38;26.50;93.50
18335;DHT22;9293;49.524;10.964;2023-07-13T09:03:12;26.20;94.50
18335;DHT22;9293;49.524;10.964;2023-07-13T09:05:48;26.30;94.70
18335;DHT22;9293;49.524;10.964;2023-07-13T09:11:23;27.00;94.60
18335;DHT22;9293;49.524;10.964;2023-07-13T09:14:19;27.50;94.50
18335;DHT22;9293;49.524;10.964;2023-07-13T09:16:51;27.60;94.00
18335;DHT22;9293;49.524;10.964;2023-07-13T09:19:22;28.00;93.20
18335;DHT22;9293;49.524;10.964;2023-07-13T09:21:52;28.10;91.60
18335;DHT22;9293;49.524;10.964;2023-07-13T09:26:59;28.20;91.10
18335;DHT22;9293;49.524;10.964;2023-07-13T09:29:34;27.90;90.40
18335;DHT22;9293;49.524;10.964;2023-07-13T09:32:06;27.70;90.10
18335;DHT22;9293;49.524;10.964;2023-07-13T09:34:35;27.70;90.40
18335;DHT22;9293;49.524;10.964;2023-07-13T09:37:03;27.80;89.20
18335;DHT22;9293;49.524;10.964;2023-07-13T09:39:38;27.50;87.20
18335;DHT22;9293;49.524;10.964;2023-07-13T09:44:43;27.80;89.80
18335;DHT22;9293;49.524;10.964;2023-07-13T09:47:15;28.00;89.10
18335;DHT22;9293;49.524;10.964;2023-07-13T09:49:44;28.30;87.60
18335;DHT22;9293;49.524;10.964;2023-07-13T09:52:16;28.40;88.80
18335;DHT22;9293;49.524;10.964;2023-07-13T09:54:45;28.80;86.20
18335;DHT22;9293;49.524;10.964;2023-07-13T09:57:16;28.60;86.50
18335;DHT22;9293;49.524;10.964;2023-07-13T09:59:48;28.60;85.60
18335;DHT22;9293;49.524;10.964;2023-07-13T10:02:27;28.40;86.50
18335;DHT22;9293;49.524;10.964;2023-07-13T10:05:06;28.70;87.00
18335;DHT22;9293;49.524;10.964;2023-07-13T10:07:37;28.70;87.10
18335;DHT22;9293;49.524;10.964;2023-07-13T10:10:13;29.00;86.90
18335;DHT22;9293;49.524;10.964;2023-07-13T10:12:45;28.90;87.00
18335;DHT22;9293;49.524;10.964;2023-07-13T10:15:18;28.90;84.40
18335;DHT22;9293;49.524;10.964;2023-07-13T10:17:53;28.80;85.10
18335;DHT22;9293;49.524;10.964;2023-07-13T10:20:23;29.00;84.90
18335;DHT22;9293;49.524;10.964;2023-07-13T10:22:54;29.20;84.30
18335;DHT22;9293;49.524;10.964;2023-07-13T10:25:24;29.10;83.70
18335;DHT22;9293;49.524;10.964;2023-07-13T10:27:53;29.10;84.30
18335;DHT22;9293;49.524;10.964;2023-07-13T10:30:25;29.20;84.50
18335;DHT22;9293;49.524;10.964;2023-07-13T10:33:00;29.20;83.30
18335;DHT22;9293;49.524;10.964;2023-07-13T10:35:30;29.20;83.10
18335;DHT22;9293;49.524;10.964;2023-07-13T10:38:01;29.20;82.50
18335;DHT22;9293;49.524;10.964;2023-07-13T10:43:45;28.70;83.90
18335;DHT22;9293;49.524;10.964;2023-07-13T10:46:14;28.20;84.00
18335;DHT22;9293;49.524;10.964;2023-07-13T10:48:44;28.00;85.30
18335;DHT22;9293;49.524;10.964;2023-07-13T10:51:13;28.00;84.60
18335;DHT22;9293;49.524;10.964;2023-07-13T10:53:42;28.00;84.90
18335;DHT22;9293;49.524;10.964;2023-07-13T10:58:42;27.70;86.60
18335;DHT22;9293;49.524;10.964;2023-07-13T11:03:47;28.60;84.20
18335;DHT22;9293;49.524;10.964;2023-07-13T11:06:29;28.70;84.70
18335;DHT22;9293;49.524;10.964;2023-07-13T11:09:18;28.50;85.30
18335;DHT22;9293;49.524;10.964;2023-07-13T11:11:46;28.10;84.00
18335;DHT22;9293;49.524;10.964;2023-07-13T11:14:28;27.50;85.20
18335;DHT22;9293;49.524;10.964;2023-07-13T11:16:57;27.70;84.80
18335;DHT22;9293;49.524;10.964;2023-07-13T11:19:26;27.80;84.50
18335;DHT22;9293;49.524;10.964;2023-07-13T11:24:52;27.60;85.70
18335;DHT22;9293;49.524;10.964;2023-07-13T11:27:21;28.20;85.60
18335;DHT22;9293;49.524;10.964;2023-07-13T11:29:53;28.50;83.70
18335;DHT22;9293;49.524;10.964;2023-07-13T11:32:34;28.30;83.30
18335;DHT22;9293;49.524;10.964;2023-07-13T11:35:02;28.10;85.40
18335;DHT22;9293;49.524;10.964;2023-07-13T11:37:31;28.30;84.00
18335;DHT22;9293;49.524;10.964;2023-07-13T11:40:00;28.30;84.60
18335;DHT22;9293;49.524;10.964;2023-07-13T11:42:28;28.10;84.10
18335;DHT22;9293;49.524;10.964;2023-07-13T11:44:59;27.90;85.00
18335;DHT22;9293;49.524;10.964;2023-07-13T11:47:39;27.60;85.00
18335;DHT22;9293;49.524;10.964;2023-07-13T11:50:18;27.70;87.30
18335;DHT22;9293;49.524;10.964;2023-07-13T11:52:46;28.00;85.40
18335;DHT22;9293;49.524;10.964;2023-07-13T11:55:17;28.20;85.00
18335;DHT22;9293;49.524;10.964;2023-07-13T11:57:56;28.50;85.80
18335;DHT22;9293;49.524;10.964;2023-07-13T12:00:27;29.00;85.20
18335;DHT22;9293;49.524;10.964;2023-07-13T12:03:02;29.20;83.70
18335;DHT22;9293;49.524;10.964;2023-07-13T12:05:32;29.00;83.30
18335;DHT22;9293;49.524;10.964;2023-07-13T12:08:07;28.60;85.00
18335;DHT22;9293;49.524;10.964;2023-07-13T12:10:42;28.50;84.40
18335;DHT22;9293;49.524;10.964;2023-07-13T12:13:12;28.30;83.90
18335;DHT22;9293;49.524;10.964;2023-07-13T12:15:43;28.20;84.80
18335;DHT22;9293;49.524;10.964;2023-07-13T12:18:19;28.10;85.40
18335;DHT22;9293;49.524;10.964;2023-07-13T12:20:48;28.50;84.40
18335;DHT22;9293;49.524;10.964;2023-07-13T12:23:21;29.00;83.40
18335;DHT22;9293;49.524;10.964;2023-07-13T12:25:52;29.10;84.10
18335;DHT22;9293;49.524;10.964;2023-07-13T12:28:21;29.20;83.60
18335;DHT22;9293;49.524;10.964;2023-07-13T12:30:49;28.70;83.90
18335;DHT22;9293;49.524;10.964;2023-07-13T12:33:17;28.60;86.00
18335;DHT22;9293;49.524;10.964;2023-07-13T12:35:48;28.60;84.60
18335;DHT22;9293;49.524;10.964;2023-07-13T12:38:17;28.50;83.90
18335;DHT22;9293;49.524;10.964;2023-07-13T12:40:45;28.60;83.00
18335;DHT22;9293;49.524;10.964;2023-07-13T12:43:17;28.50;85.40
18335;DHT22;9293;49.524;10.964;2023-07-13T12:46:15;28.20;84.40
18335;DHT22;9293;49.524;10.964;2023-07-13T12:48:47;27.50;85.30
18335;DHT22;9293;49.524;10.964;2023-07-13T12:51:30;27.40;87.50
18335;DHT22;9293;49.524;10.964;2023-07-13T12:54:05;27.60;86.10
18335;DHT22;9293;49.524;10.964;2023-07-13T12:56:33;27.80;86.50
18335;DHT22;9293;49.524;10.964;2023-07-13T12:59:02;28.20;85.30
18335;DHT22;9293;49.524;10.964;2023-07-13T13:01:32;28.40;85.20
18335;DHT22;9293;49.524;10.964;2023-07-13T13:04:02;28.40;84.70
18335;DHT22;9293;49.524;10.964;2023-07-13T13:06:34;28.10;84.20
18335;DHT22;9293;49.524;10.964;2023-07-13T13:09:09;27.80;84.50
18335;DHT22;9293;49.524;10.964;2023-07-13T13:11:41;27.50;86.20
18335;DHT22;9293;49.524;10.964;2023-07-13T13:14:09;27.60;84.40
18335;DHT22;9293;49.524;10.964;2023-07-13T13:16:47;27.90;85.50
18335;DHT22;9293;49.524;10.964;2023-07-13T13:19:20;28.50;85.80
18335;DHT22;9293;49.524;10.964;2023-07-13T13:21:50;29.00;83.60
18335;DHT22;9293;49.524;10.964;2023-07-13T13:24:21;29.30;81.80
18335;DHT22;9293;49.524;10.964;2023-07-13T13:26:50;29.60;83.10
18335;DHT22;9293;49.524;10.964;2023-07-13T13:29:20;29.50;83.80
18335;DHT22;9293;49.524;10.964;2023-07-13T13:31:48;29.20;83.00
18335;DHT22;9293;49.524;10.964;2023-07-13T13:34:17;28.70;83.50
18335;DHT22;9293;49.524;10.964;2023-07-13T13:36:46;28.50;83.20
18335;DHT22;9293;49.524;10.964;2023-07-13T13:39:23;28.00;83.40
18335;DHT22;9293;49.524;10.964;2023-07-13T13:41:52;28.00;83.40
18335;DHT22;9293;49.524;10.964;2023-07-13T13:44:21;27.80;84.70
18335;DHT22;9293;49.524;10.964;2023-07-13T13:46:50;27.90;84.40
18335;DHT22;9293;49.524;10.964;2023-07-13T13:49:21;28.00;84.50
18335;DHT22;9293;49.524;10.964;2023-07-13T13:51:49;27.70;83.80
18335;DHT22;9293;49.524;10.964;2023-07-13T13:54:18;27.50;84.60
18335;DHT22;9293;49.524;10.964;2023-07-13T13:56:47;27.30;84.20
18335;DHT22;9293;49.524;10.964;2023-07-13T13:59:15;27.00;85.10
18335;DHT22;9293;49.524;10.964;2023-07-13T14:01:47;27.00;84.50
18335;DHT22;9293;49.524;10.964;2023-07-13T14:04:19;26.80;83.90
18335;DHT22;9293;49.524;10.964;2023-07-13T14:06:47;26.80;84.30
18335;DHT22;9293;49.524;10.964;2023-07-13T14:09:17;26.80;85.20
18335;DHT22;9293;49.524;10.964;2023-07-13T14:11:47;26.70;84.80
18335;DHT22;9293;49.524;10.964;2023-07-13T14:14:18;26.80;85.30
18335;DHT22;9293;49.524;10.964;2023-07-13T14:16:47;26.90;83.20
18335;DHT22;9293;49.524;10.964;2023-07-13T14:19:21;26.90;84.10
18335;DHT22;9293;49.524;10.964;2023-07-13T14:21:49;27.20;84.40
18335;DHT22;9293;49.524;10.964;2023-07-13T14:24:21;27.20;84.40
18335;DHT22;9293;49.524;10.964;2023-07-13T14:26:49;27.80;84.70
18335;DHT22;9293;49.524;10.964;2023-07-13T14:29:18;28.30;83.40
18335;DHT22;9293;49.524;10.964;2023-07-13T14:31:50;28.30;83.70
18335;DHT22;9293;49.524;10.964;2023-07-13T14:34:19;28.40;82.00
18335;DHT22;9293;49.524;10.964;2023-07-13T14:36:48;28.30;82.90
18335;DHT22;9293;49.524;10.964;2023-07-13T14:39:18;28.20;83.90
18335;DHT22;9293;49.524;10.964;2023-07-13T14:41:48;27.90;81.40
18335;DHT22;9293;49.524;10.964;2023-07-13T14:44:20;27.70;82.60
18335;DHT22;9293;49.524;10.964;2023-07-13T14:46:48;27.80;82.50
18335;DHT22;9293;49.524;10.964;2023-07-13T14:51:48;27.70;81.70
18335;DHT22;9293;49.524;10.964;2023-07-13T14:54:16;27.80;81.20
18335;DHT22;9293;49.524;10.964;2023-07-13T14:56:44;28.00;82.40
18335;DHT22;9293;49.524;10.964;2023-07-13T14:59:12;28.40;82.80
18335;DHT22;9293;49.524;10.964;2023-07-13T15:01:41;28.40;80.90
18335;DHT22;9293;49.524;10.964;2023-07-13T15:04:09;28.00;80.60
18335;DHT22;9293;49.524;10.964;2023-07-13T15:09:23;28.20;80.40
18335;DHT22;9293;49.524;10.964;2023-07-13T15:11:55;28.30;80.20
18335;DHT22;9293;49.524;10.964;2023-07-13T15:14:23;28.40;79.70
18335;DHT22;9293;49.524;10.964;2023-07-13T15:16:58;28.30;82.00
18335;DHT22;9293;49.524;10.964;2023-07-13T15:19:27;28.20;80.90
18335;DHT22;9293;49.524;10.964;2023-07-13T15:21:56;27.80;80.90
18335;DHT22;9293;49.524;10.964;2023-07-13T15:24:25;27.80;81.10
18335;DHT22;9293;49.524;10.964;2023-07-13T15:26:53;28.00;81.50
18335;DHT22;9293;49.524;10.964;2023-07-13T15:29:21;28.20;82.00
18335;DHT22;9293;49.524;10.964;2023-07-13T15:31:51;28.50;80.30
18335;DHT22;9293;49.524;10.964;2023-07-13T15:34:21;28.40;81.10
18335;DHT22;9293;49.524;10.964;2023-07-13T15:36:52;28.40;81.80
18335;DHT22;9293;49.524;10.964;2023-07-13T15:39:20;28.40;80.60
18335;DHT22;9293;49.524;10.964;2023-07-13T15:41:48;28.10;81.90
18335;DHT22;9293;49.524;10.964;2023-07-13T15:44:23;27.80;82.30
18335;DHT22;9293;49.524;10.964;2023-07-13T15:46:53;27.60;82.50
18335;DHT22;9293;49.524;10.964;2023-07-13T15:49:21;27.60;82.10
18335;DHT22;9293;49.524;10.964;2023-07-13T15:51:49;27.60;82.40
18335;DHT22;9293;49.524;10.964;2023-07-13T15:54:21;27.40;83.30
18335;DHT22;9293;49.524;10.964;2023-07-13T15:57:03;27.20;83.10
18335;DHT22;9293;49.524;10.964;2023-07-13T15:59:31;26.90;84.60
18335;DHT22;9293;49.524;10.964;2023-07-13T16:01:59;27.00;85.50
18335;DHT22;9293;49.524;10.964;2023-07-13T16:04:29;27.00;82.40
18335;DHT22;9293;49.524;10.964;2023-07-13T16:06:57;26.90;83.40
18335;DHT22;9293;49.524;10.964;2023-07-13T16:09:25;26.70;83.80
18335;DHT22;9293;49.524;10.964;2023-07-13T16:11:54;26.60;84.60
18335;DHT22;9293;49.524;10.964;2023-07-13T16:14:25;26.90;84.60
18335;DHT22;9293;49.524;10.964;2023-07-13T16:16:54;27.10;85.00
18335;DHT22;9293;49.524;10.964;2023-07-13T16:19:23;27.30;84.00